sensor_id;sensor_type;location;lat;lon;timestamp;temperature;humidity
46758;DHT22;32509;47.750;-3.396;2023-08-06T00:00:38;17.40;99.90
46758;DHT22;32509;47.750;-3.396;2023-08-06T00:03:04;17.40;99.90
46758;DHT22;32509;47.750;-3.396;2023-08-06T00:05:30;17.40;99.90
46758;DHT22;32509;47.750;-3.396;2023-08-06T00:07:56;17.40;99.90
46758;DHT22;32509;47.750;-3.396;2023-08-06T00:10:22;17.40;99.90
46758;DHT22;32509;47.750;-3.396;2023-08-06T00:12:47;17.40;99.90
46758;DHT22;32509;47.750;-3.396;2023-08-06T00:15:14;17.40;99.90
46758;DHT22;32509;47.750;-3.396;2023-08-06T00:17:40;17.40;99.90
46758;DHT22;32509;47.750;-3.396;2023-08-06T00:20:06;17.30;99.90
46758;DHT22;32509;47.750;-3.396;2023-08-06T00:22:37;17.40;99.90
46758;DHT22;32509;47.750;-3.396;2023-08-06T00:25:03;17.30;99.90
46758;DHT22;32509;47.750;-3.396;2023-08-06T00:27:29;17.30;99.90
46758;DHT22;32509;47.750;-3.396;2023-08-06T00:29:55;17.40;99.90
46758;DHT22;32509;47.750;-3.396;2023-08-06T00:32:21;17.30;99.90
46758;DHT22;32509;47.750;-3.396;2023-08-06T00:34:47;17.30;99.90
46758;DHT22;32509;47.750;-3.396;2023-08-06T00:37:18;17.30;99.90
46758;DHT22;32509;47.750;-3.396;2023-08-06T00:39:44;17.30;99.90
46758;DHT22;32509;47.750;-3.396;2023-08-06T00:42:10;17.30;99.90
46758;DHT22;32509;47.750;-3.396;2023-08-06T00:44:37;17.30;99.90
46758;DHT22;32509;47.750;-3.396;2023-08-06T00:47:03;17.30;99.90
46758;DHT22;32509;47.750;-3.396;2023-08-06T00:49:29;17.30;99.90
46758;DHT22;32509;47.750;-3.396;2023-08-06T00:51:56;17.30;99.90
46758;DHT22;32509;47.750;-3.396;2023-08-06T00:54:23;17.30;99.90
46758;DHT22;32509;47.750;-3.396;2023-08-06T00:56:49;17.30;99.90
46758;DHT22;32509;47.750;-3.396;2023-08-06T00:59:15;17.30;99.90
46758;DHT22;32509;47.750;-3.396;2023-08-06T01:01:41;17.30;99.90
46758;DHT22;32509;47.750;-3.396;2023-08-06T01:04:07;17.30;99.90
46758;DHT22;32509;47.750;-3.396;2023-08-06T01:06:48;17.30;99.90
46758;DHT22;32509;47.750;-3.396;2023-08-06T01:09:40;17.30;99.90
46758;DHT22;32509;47.750;-3.396;2023-08-06T01:15:23;17.30;99.90
46758;DHT22;32509;47.750;-3.396;2023-08-06T01:17:50;17.20;99.90
46758;DHT22;32509;47.750;-3.396;2023-08-06T01:20:16;17.20;99.90
46758;DHT22;32509;47.750;-3.396;2023-08-06T01:22:41;17.20;99.90
46758;DHT22;32509;47.750;-3.396;2023-08-06T01:25:08;17.20;99.90
46758;DHT22;32509;47.750;-3.396;2023-08-06T01:27:43;17.30;99.90
46758;DHT22;32509;47.750;-3.396;2023-08-06T01:30:16;17.20;99.90
46758;DHT22;32509;47.750;-3.396;2023-08-06T01:32:44;17.20;99.90
46758;DHT22;32509;47.750;-3.396;2023-08-06T01:35:14;17.20;99.90
46758;DHT22;32509;47.750;-3.396;2023-08-06T01:37:41;17.20;99.90
46758;DHT22;32509;47.750;-3.396;2023-08-06T01:40:11;17.20;99.90
46758;DHT22;32509;47.750;-3.396;2023-08-06T01:42:40;17.20;99.90
46758;DHT22;32509;47.750;-3.396;2023-08-06T01:45:07;17.20;99.90
46758;DHT22;32509;47.750;-3.396;2023-08-06T01:47:33;17.20;99.90
46758;DHT22;32509;47.750;-3.396;2023-08-06T01:49:59;17.10;99.90
46758;DHT22;32509;47.750;-3.396;2023-08-06T01:52:26;17.10;99.90
46758;DHT22;32509;47.750;-3.396;2023-08-06T01:54:52;17.10;99.90
46758;DHT22;32509;47.750;-3.396;2023-08-06T01:57:18;17.10;99.90
46758;DHT22;32509;47.750;-3.396;2023-08-06T01:59:43;17.10;99.90
46758;DHT22;32509;47.750;-3.396;2023-08-06T02:02:09;17.10;99.90
46758;DHT22;32509;47.750;-3.396;2023-08-06T02:04:35;17.10;99.90
46758;DHT22;32509;47.750;-3.396;2023-08-06T02:07:01;17.10;99.90
46758;DHT22;32509;47.750;-3.396;2023-08-06T02:09:27;17.10;99.90
46758;DHT22;32509;47.750;-3.396;2023-08-06T02:11:52;17.10;99.90
46758;DHT22;32509;47.750;-3.396;2023-08-06T02:14:18;17.10;99.90
46758;DHT22;32509;47.750;-3.396;2023-08-06T02:16:44;17.10;99.90
46758;DHT22;32509;47.750;-3.396;2023-08-06T02:19:10;17.10;99.90
46758;DHT22;32509;47.750;-3.396;2023-08-06T02:21:35;17.10;99.90
46758;DHT22;32509;47.750;-3.396;2023-08-06T02:24:01;17.10;99.90
46758;DHT22;32509;47.750;-3.396;2023-08-06T02:26:27;17.10;99.90
46758;DHT22;32509;47.750;-3.396;2023-08-06T02:28:53;17.10;99.90
46758;DHT22;32509;47.750;-3.396;2023-08-06T02:31:19;17.10;99.90
46758;DHT22;32509;47.750;-3.396;2023-08-06T02:33:45;17.00;99.90
46758;DHT22;32509;47.750;-3.396;2023-08-06T02:36:10;17.00;99.90
46758;DHT22;32509;47.750;-3.396;2023-08-06T02:38:36;17.00;99.90
46758;DHT22;32509;47.750;-3.396;2023-08-06T02:41:03;17.00;99.90
46758;DHT22;32509;47.750;-3.396;2023-08-06T02:43:29;17.00;99.90
46758;DHT22;32509;47.750;-3.396;2023-08-06T02:46:01;17.00;99.90
46758;DHT22;32509;47.750;-3.396;2023-08-06T02:48:27;17.00;99.90
46758;DHT22;32509;47.750;-3.396;2023-08-06T02:50:57;17.00;99.90
46758;DHT22;32509;47.750;-3.396;2023-08-06T02:53:23;17.00;99.90
46758;DHT22;32509;47.750;-3.396;2023-08-06T02:55:48;17.00;99.90
46758;DHT22;32509;47.750;-3.396;2023-08-06T02:58:15;17.00;99.90
46758;DHT22;32509;47.750;-3.396;2023-08-06T03:00:41;17.00;99.90
46758;DHT22;32509;47.750;-3.396;2023-08-06T03:03:07;17.00;99.90
46758;DHT22;32509;47.750;-3.396;2023-08-06T03:05:36;17.00;99.90
46758;DHT22;32509;47.750;-3.396;2023-08-06T03:08:01;17.00;99.90
46758;DHT22;32509;47.750;-3.396;2023-08-06T03:10:27;17.00;99.90
46758;DHT22;32509;47.750;-3.396;2023-08-06T03:12:53;17.00;99.90
46758;DHT22;32509;47.750;-3.396;2023-08-06T03:15:19;16.90;99.90
46758;DHT22;32509;47.750;-3.396;2023-08-06T03:17:44;16.90;99.90
46758;DHT22;32509;47.750;-3.396;2023-08-06T03:20:10;16.90;99.90
46758;DHT22;32509;47.750;-3.396;2023-08-06T03:22:36;16.90;99.90
46758;DHT22;32509;47.750;-3.396;2023-08-06T03:25:03;16.90;99.90
46758;DHT22;32509;47.750;-3.396;2023-08-06T03:27:28;16.90;99.90
46758;DHT22;32509;47.750;-3.396;2023-08-06T03:29:54;16.90;99.90
46758;DHT22;32509;47.750;-3.396;2023-08-06T03:32:21;16.90;99.90
46758;DHT22;32509;47.750;-3.396;2023-08-06T03:34:47;16.90;99.90
46758;DHT22;32509;47.750;-3.396;2023-08-06T03:37:13;16.80;99.90
46758;DHT22;32509;47.750;-3.396;2023-08-06T03:39:38;16.90;99.90
46758;DHT22;32509;47.750;-3.396;2023-08-06T03:42:04;16.90;99.90
46758;DHT22;32509;47.750;-3.396;2023-08-06T03:44:30;16.80;99.90
46758;DHT22;32509;47.750;-3.396;2023-08-06T03:46:56;16.80;99.90
46758;DHT22;32509;47.750;-3.396;2023-08-06T03:49:22;16.80;99.90
46758;DHT22;32509;47.750;-3.396;2023-08-06T03:51:47;16.80;99.90
46758;DHT22;32509;47.750;-3.396;2023-08-06T03:54:13;16.80;99.90
46758;DHT22;32509;47.750;-3.396;2023-08-06T03:56:39;16.80;99.90
46758;DHT22;32509;47.750;-3.396;2023-08-06T03:59:05;16.80;99.90
46758;DHT22;32509;47.750;-3.396;2023-08-06T04:01:30;16.80;99.90
46758;DHT22;32509;47.750;-3.396;2023-08-06T04:03:56;16.80;99.90
46758;DHT22;32509;47.750;-3.396;2023-08-06T04:06:22;16.80;99.90
46758;DHT22;32509;47.750;-3.396;2023-08-06T04:08:48;16.80;99.90
46758;DHT22;32509;47.750;-3.396;2023-08-06T04:11:13;16.80;99.90
46758;DHT22;32509;47.750;-3.396;2023-08-06T04:13:42;16.80;99.90
46758;DHT22;32509;47.750;-3.396;2023-08-06T04:16:09;16.80;99.90
46758;DHT22;32509;47.750;-3.396;2023-08-06T04:18:34;16.80;99.90
46758;DHT22;32509;47.750;-3.396;2023-08-06T04:21:02;16.80;99.90
46758;DHT22;32509;47.750;-3.396;2023-08-06T04:23:28;16.80;99.90
46758;DHT22;32509;47.750;-3.396;2023-08-06T04:25:57;16.80;99.90
46758;DHT22;32509;47.750;-3.396;2023-08-06T04:28:22;16.80;99.90
46758;DHT22;32509;47.750;-3.396;2023-08-06T04:30:48;16.80;99.90
46758;DHT22;32509;47.750;-3.396;2023-08-06T04:33:14;16.80;99.90
46758;DHT22;32509;47.750;-3.396;2023-08-06T04:35:40;16.80;99.90
46758;DHT22;32509;47.750;-3.396;2023-08-06T04:38:05;16.80;99.90
46758;DHT22;32509;47.750;-3.396;2023-08-06T04:40:34;16.80;99.90
46758;DHT22;32509;47.750;-3.396;2023-08-06T04:42:59;16.80;99.90
46758;DHT22;32509;47.750;-3.396;2023-08-06T04:45:26;16.80;99.90
46758;DHT22;32509;47.750;-3.396;2023-08-06T04:47:51;16.80;99.90
46758;DHT22;32509;47.750;-3.396;2023-08-06T04:50:18;16.80;99.90
46758;DHT22;32509;47.750;-3.396;2023-08-06T04:52:43;16.80;99.90
46758;DHT22;32509;47.750;-3.396;2023-08-06T04:55:09;16.80;99.90
46758;DHT22;32509;47.750;-3.396;2023-08-06T04:57:35;16.80;99.90
46758;DHT22;32509;47.750;-3.396;2023-08-06T05:00:01;16.80;99.90
46758;DHT22;32509;47.750;-3.396;2023-08-06T05:02:26;16.80;99.90
46758;DHT22;32509;47.750;-3.396;2023-08-06T05:04:52;16.80;99.90
46758;DHT22;32509;47.750;-3.396;2023-08-06T05:07:18;16.80;99.90
46758;DHT22;32509;47.750;-3.396;2023-08-06T05:09:44;16.80;99.90
46758;DHT22;32509;47.750;-3.396;2023-08-06T05:12:09;16.80;99.90
46758;DHT22;32509;47.750;-3.396;2023-08-06T05:14:36;16.80;99.90
46758;DHT22;32509;47.750;-3.396;2023-08-06T05:17:01;16.80;99.90
46758;DHT22;32509;47.750;-3.396;2023-08-06T05:19:29;16.80;99.90
46758;DHT22;32509;47.750;-3.396;2023-08-06T05:21:55;16.80;99.90
46758;DHT22;32509;47.750;-3.396;2023-08-06T05:24:21;16.80;99.90
46758;DHT22;32509;47.750;-3.396;2023-08-06T05:26:47;16.80;99.90
46758;DHT22;32509;47.750;-3.396;2023-08-06T05:29:13;16.80;99.90
46758;DHT22;32509;47.750;-3.396;2023-08-06T05:31:39;16.80;99.90
46758;DHT22;32509;47.750;-3.396;2023-08-06T05:34:04;16.80;99.90
46758;DHT22;32509;47.750;-3.396;2023-08-06T05:36:30;16.80;99.90
46758;DHT22;32509;47.750;-3.396;2023-08-06T05:38:56;16.80;99.90
46758;DHT22;32509;47.750;-3.396;2023-08-06T05:41:22;16.80;99.90
46758;DHT22;32509;47.750;-3.396;2023-08-06T05:43:47;16.80;99.90
46758;DHT22;32509;47.750;-3.396;2023-08-06T05:46:13;16.80;99.90
46758;DHT22;32509;47.750;-3.396;2023-08-06T05:48:39;16.80;99.90
46758;DHT22;32509;47.750;-3.396;2023-08-06T05:51:05;16.80;99.90
46758;DHT22;32509;47.750;-3.396;2023-08-06T05:53:31;16.80;99.90
46758;DHT22;32509;47.750;-3.396;2023-08-06T05:55:57;16.80;99.90
46758;DHT22;32509;47.750;-3.396;2023-08-06T05:58:22;16.80;99.90
46758;DHT22;32509;47.750;-3.396;2023-08-06T06:00:51;16.90;99.90
46758;DHT22;32509;47.750;-3.396;2023-08-06T06:03:17;16.90;99.90
46758;DHT22;32509;47.750;-3.396;2023-08-06T06:05:43;16.90;99.90
46758;DHT22;32509;47.750;-3.396;2023-08-06T06:08:08;16.90;99.90
46758;DHT22;32509;47.750;-3.396;2023-08-06T06:10:35;16.90;99.90
46758;DHT22;32509;47.750;-3.396;2023-08-06T06:13:01;16.90;99.90
46758;DHT22;32509;47.750;-3.396;2023-08-06T06:15:26;16.90;99.90
46758;DHT22;32509;47.750;-3.396;2023-08-06T06:17:52;16.90;99.90
46758;DHT22;32509;47.750;-3.396;2023-08-06T06:20:18;16.90;99.90
46758;DHT22;32509;47.750;-3.396;2023-08-06T06:22:44;16.90;99.90
46758;DHT22;32509;47.750;-3.396;2023-08-06T06:25:09;17.00;99.90
46758;DHT22;32509;47.750;-3.396;2023-08-06T06:27:35;17.00;99.90
46758;DHT22;32509;47.750;-3.396;2023-08-06T06:30:01;17.00;99.90
46758;DHT22;32509;47.750;-3.396;2023-08-06T06:32:27;17.00;99.90
46758;DHT22;32509;47.750;-3.396;2023-08-06T06:34:53;17.00;99.90
46758;DHT22;32509;47.750;-3.396;2023-08-06T06:37:19;17.00;99.90
46758;DHT22;32509;47.750;-3.396;2023-08-06T06:39:45;17.10;99.90
46758;DHT22;32509;47.750;-3.396;2023-08-06T06:42:11;17.10;99.90
46758;DHT22;32509;47.750;-3.396;2023-08-06T06:44:36;17.10;99.90
46758;DHT22;32509;47.750;-3.396;2023-08-06T06:47:02;17.10;99.90
46758;DHT22;32509;47.750;-3.396;2023-08-06T06:49:28;17.10;99.90
46758;DHT22;32509;47.750;-3.396;2023-08-06T06:51:54;17.10;99.90
46758;DHT22;32509;47.750;-3.396;2023-08-06T06:54:20;17.10;99.90
46758;DHT22;32509;47.750;-3.396;2023-08-06T06:56:45;17.10;99.90
46758;DHT22;32509;47.750;-3.396;2023-08-06T06:59:11;17.20;99.90
46758;DHT22;32509;47.750;-3.396;2023-08-06T07:01:37;17.20;99.90
46758;DHT22;32509;47.750;-3.396;2023-08-06T07:04:03;17.20;99.90
46758;DHT22;32509;47.750;-3.396;2023-08-06T07:06:30;17.20;99.90
46758;DHT22;32509;47.750;-3.396;2023-08-06T07:08:56;17.20;99.90
46758;DHT22;32509;47.750;-3.396;2023-08-06T07:11:22;17.20;99.90
46758;DHT22;32509;47.750;-3.396;2023-08-06T07:13:55;17.20;99.90
46758;DHT22;32509;47.750;-3.396;2023-08-06T07:16:21;17.20;99.90
46758;DHT22;32509;47.750;-3.396;2023-08-06T07:18:47;17.20;99.90
46758;DHT22;32509;47.750;-3.396;2023-08-06T07:21:13;17.30;99.90
46758;DHT22;32509;47.750;-3.396;2023-08-06T07:23:38;17.20;99.90
46758;DHT22;32509;47.750;-3.396;2023-08-06T07:26:04;17.30;99.90
46758;DHT22;32509;47.750;-3.396;2023-08-06T07:28:30;17.20;99.90
46758;DHT22;32509;47.750;-3.396;2023-08-06T07:30:55;17.30;99.90
46758;DHT22;32509;47.750;-3.396;2023-08-06T07:33:21;17.30;99.90
46758;DHT22;32509;47.750;-3.396;2023-08-06T07:35:47;17.30;99.90
46758;DHT22;32509;47.750;-3.396;2023-08-06T07:38:12;17.30;99.90
46758;DHT22;32509;47.750;-3.396;2023-08-06T07:40:39;17.30;99.90
46758;DHT22;32509;47.750;-3.396;2023-08-06T07:43:04;17.40;99.90
46758;DHT22;32509;47.750;-3.396;2023-08-06T07:45:34;17.30;99.90
46758;DHT22;32509;47.750;-3.396;2023-08-06T07:48:01;17.40;99.90
46758;DHT22;32509;47.750;-3.396;2023-08-06T07:50:27;17.40;99.90
46758;DHT22;32509;47.750;-3.396;2023-08-06T07:52:53;17.40;99.90
46758;DHT22;32509;47.750;-3.396;2023-08-06T07:55:19;17.40;99.90
46758;DHT22;32509;47.750;-3.396;2023-08-06T07:57:44;17.40;99.90
46758;DHT22;32509;47.750;-3.396;2023-08-06T08:00:10;17.50;99.90
46758;DHT22;32509;47.750;-3.396;2023-08-06T08:02:36;17.40;99.90
46758;DHT22;32509;47.750;-3.396;2023-08-06T08:05:02;17.40;99.90
46758;DHT22;32509;47.750;-3.396;2023-08-06T08:07:28;17.50;99.90
46758;DHT22;32509;47.750;-3.396;2023-08-06T08:09:56;17.50;99.90
46758;DHT22;32509;47.750;-3.396;2023-08-06T08:12:22;17.50;99.90
46758;DHT22;32509;47.750;-3.396;2023-08-06T08:14:48;17.50;99.90
46758;DHT22;32509;47.750;-3.396;2023-08-06T08:17:14;17.50;99.90
46758;DHT22;32509;47.750;-3.396;2023-08-06T08:19:43;17.50;99.90
46758;DHT22;32509;47.750;-3.396;2023-08-06T08:22:09;17.50;99.90
46758;DHT22;32509;47.750;-3.396;2023-08-06T08:24:35;17.60;99.90
46758;DHT22;32509;47.750;-3.396;2023-08-06T08:27:00;17.50;99.90
46758;DHT22;32509;47.750;-3.396;2023-08-06T08:29:26;17.60;99.90
46758;DHT22;32509;47.750;-3.396;2023-08-06T08:31:52;17.60;99.90
46758;DHT22;32509;47.750;-3.396;2023-08-06T08:34:18;17.70;99.90
46758;DHT22;32509;47.750;-3.396;2023-08-06T08:36:44;17.70;99.90
46758;DHT22;32509;47.750;-3.396;2023-08-06T08:39:12;17.70;99.90
46758;DHT22;32509;47.750;-3.396;2023-08-06T08:41:39;17.70;99.90
46758;DHT22;32509;47.750;-3.396;2023-08-06T08:44:08;17.70;99.90
46758;DHT22;32509;47.750;-3.396;2023-08-06T08:46:40;17.80;99.90
46758;DHT22;32509;47.750;-3.396;2023-08-06T08:49:07;17.80;99.90
46758;DHT22;32509;47.750;-3.396;2023-08-06T08:51:33;17.90;99.90
46758;DHT22;32509;47.750;-3.396;2023-08-06T08:54:03;17.90;99.90
46758;DHT22;32509;47.750;-3.396;2023-08-06T08:56:29;17.90;99.90
46758;DHT22;32509;47.750;-3.396;2023-08-06T08:58:54;17.90;99.90
46758;DHT22;32509;47.750;-3.396;2023-08-06T09:01:22;17.90;99.90
46758;DHT22;32509;47.750;-3.396;2023-08-06T09:03:48;17.90;99.90
46758;DHT22;32509;47.750;-3.396;2023-08-06T09:06:14;17.90;99.90
46758;DHT22;32509;47.750;-3.396;2023-08-06T09:08:52;17.90;99.90
46758;DHT22;32509;47.750;-3.396;2023-08-06T09:11:20;18.00;99.90
46758;DHT22;32509;47.750;-3.396;2023-08-06T09:13:47;18.10;99.90
46758;DHT22;32509;47.750;-3.396;2023-08-06T09:16:13;18.10;99.90
46758;DHT22;32509;47.750;-3.396;2023-08-06T09:18:39;18.10;99.90
46758;DHT22;32509;47.750;-3.396;2023-08-06T09:21:05;18.20;99.90
46758;DHT22;32509;47.750;-3.396;2023-08-06T09:23:31;18.20;99.90
46758;DHT22;32509;47.750;-3.396;2023-08-06T09:25:59;18.10;99.90
46758;DHT22;32509;47.750;-3.396;2023-08-06T09:28:46;18.20;99.90
46758;DHT22;32509;47.750;-3.396;2023-08-06T09:31:11;18.20;99.90
46758;DHT22;32509;47.750;-3.396;2023-08-06T09:33:37;18.20;99.90
46758;DHT22;32509;47.750;-3.396;2023-08-06T09:36:10;18.20;99.90
46758;DHT22;32509;47.750;-3.396;2023-08-06T09:38:40;18.20;99.90
46758;DHT22;32509;47.750;-3.396;2023-08-06T09:41:06;18.20;99.90
46758;DHT22;32509;47.750;-3.396;2023-08-06T09:43:44;18.20;99.90
46758;DHT22;32509;47.750;-3.396;2023-08-06T09:46:11;18.30;99.90
46758;DHT22;32509;47.750;-3.396;2023-08-06T09:48:39;18.40;99.90
46758;DHT22;32509;47.750;-3.396;2023-08-06T09:51:05;18.40;99.90
46758;DHT22;32509;47.750;-3.396;2023-08-06T09:53:33;18.40;99.90
46758;DHT22;32509;47.750;-3.396;2023-08-06T09:56:01;18.50;99.90
46758;DHT22;32509;47.750;-3.396;2023-08-06T09:58:27;18.50;99.90
46758;DHT22;32509;47.750;-3.396;2023-08-06T10:00:53;18.50;99.90
46758;DHT22;32509;47.750;-3.396;2023-08-06T10:03:19;18.50;99.90
46758;DHT22;32509;47.750;-3.396;2023-08-06T10:05:46;18.60;99.90
46758;DHT22;32509;47.750;-3.396;2023-08-06T10:08:12;18.70;99.90
46758;DHT22;32509;47.750;-3.396;2023-08-06T10:10:38;18.70;99.90
46758;DHT22;32509;47.750;-3.396;2023-08-06T10:13:06;18.70;99.90
46758;DHT22;32509;47.750;-3.396;2023-08-06T10:15:33;18.80;99.90
46758;DHT22;32509;47.750;-3.396;2023-08-06T10:18:00;18.80;99.90
46758;DHT22;32509;47.750;-3.396;2023-08-06T10:20:26;18.80;99.90
46758;DHT22;32509;47.750;-3.396;2023-08-06T10:23:07;18.90;99.90
46758;DHT22;32509;47.750;-3.396;2023-08-06T10:25:34;18.90;99.90
46758;DHT22;32509;47.750;-3.396;2023-08-06T10:28:10;19.00;99.90
46758;DHT22;32509;47.750;-3.396;2023-08-06T10:30:44;19.00;99.90
46758;DHT22;32509;47.750;-3.396;2023-08-06T10:33:09;19.00;99.90
46758;DHT22;32509;47.750;-3.396;2023-08-06T10:35:46;19.10;99.90
46758;DHT22;32509;47.750;-3.396;2023-08-06T10:38:22;19.10;99.90
46758;DHT22;32509;47.750;-3.396;2023-08-06T10:43:27;19.20;99.90
46758;DHT22;32509;47.750;-3.396;2023-08-06T10:45:53;19.20;99.90
46758;DHT22;32509;47.750;-3.396;2023-08-06T10:48:34;19.30;99.90
46758;DHT22;32509;47.750;-3.396;2023-08-06T10:51:02;19.40;99.90
46758;DHT22;32509;47.750;-3.396;2023-08-06T10:53:28;19.40;99.90
46758;DHT22;32509;47.750;-3.396;2023-08-06T10:55:54;19.30;99.90
46758;DHT22;32509;47.750;-3.396;2023-08-06T10:58:20;19.40;99.90
46758;DHT22;32509;47.750;-3.396;2023-08-06T11:00:46;19.40;99.90
46758;DHT22;32509;47.750;-3.396;2023-08-06T11:03:12;19.40;99.90
46758;DHT22;32509;47.750;-3.396;2023-08-06T11:05:38;19.40;99.90
46758;DHT22;32509;47.750;-3.396;2023-08-06T11:08:04;19.40;99.90
46758;DHT22;32509;47.750;-3.396;2023-08-06T11:10:33;19.50;99.90
46758;DHT22;32509;47.750;-3.396;2023-08-06T11:13:05;19.50;99.90
46758;DHT22;32509;47.750;-3.396;2023-08-06T11:15:33;19.50;99.90
46758;DHT22;32509;47.750;-3.396;2023-08-06T11:17:59;19.50;99.90
46758;DHT22;32509;47.750;-3.396;2023-08-06T11:20:25;19.50;99.90
46758;DHT22;32509;47.750;-3.396;2023-08-06T11:22:53;19.50;99.90
46758;DHT22;32509;47.750;-3.396;2023-08-06T11:25:20;19.50;99.90
46758;DHT22;32509;47.750;-3.396;2023-08-06T11:27:47;19.40;99.90
46758;DHT22;32509;47.750;-3.396;2023-08-06T11:30:14;19.40;99.90
46758;DHT22;32509;47.750;-3.396;2023-08-06T11:32:47;19.50;99.90
46758;DHT22;32509;47.750;-3.396;2023-08-06T11:35:13;19.50;99.90
46758;DHT22;32509;47.750;-3.396;2023-08-06T11:37:43;19.50;99.90
46758;DHT22;32509;47.750;-3.396;2023-08-06T11:40:09;19.50;99.90
46758;DHT22;32509;47.750;-3.396;2023-08-06T11:42:38;19.50;99.90
46758;DHT22;32509;47.750;-3.396;2023-08-06T11:45:04;19.60;99.90
46758;DHT22;32509;47.750;-3.396;2023-08-06T11:47:30;19.60;99.90
46758;DHT22;32509;47.750;-3.396;2023-08-06T11:49:56;19.60;99.90
46758;DHT22;32509;47.750;-3.396;2023-08-06T11:52:23;19.60;99.90
46758;DHT22;32509;47.750;-3.396;2023-08-06T11:57:29;19.60;99.90
46758;DHT22;32509;47.750;-3.396;2023-08-06T12:00:04;19.60;99.90
46758;DHT22;32509;47.750;-3.396;2023-08-06T12:02:32;19.60;99.90
46758;DHT22;32509;47.750;-3.396;2023-08-06T12:05:13;19.60;99.90
46758;DHT22;32509;47.750;-3.396;2023-08-06T12:07:45;19.60;99.90
46758;DHT22;32509;47.750;-3.396;2023-08-06T12:10:12;19.60;99.90
46758;DHT22;32509;47.750;-3.396;2023-08-06T12:12:38;19.60;99.90
46758;DHT22;32509;47.750;-3.396;2023-08-06T12:15:05;19.60;99.90
46758;DHT22;32509;47.750;-3.396;2023-08-06T12:17:32;19.70;99.90
46758;DHT22;32509;47.750;-3.396;2023-08-06T12:19:58;19.80;99.90
46758;DHT22;32509;47.750;-3.396;2023-08-06T12:22:24;19.80;99.90
46758;DHT22;32509;47.750;-3.396;2023-08-06T12:24:52;19.80;99.90
46758;DHT22;32509;47.750;-3.396;2023-08-06T12:27:18;19.80;99.90
46758;DHT22;32509;47.750;-3.396;2023-08-06T12:29:46;19.80;99.90
46758;DHT22;32509;47.750;-3.396;2023-08-06T12:32:12;19.80;99.90
46758;DHT22;32509;47.750;-3.396;2023-08-06T12:34:42;19.70;99.90
46758;DHT22;32509;47.750;-3.396;2023-08-06T12:37:08;19.70;99.90
46758;DHT22;32509;47.750;-3.396;2023-08-06T12:39:37;19.70;99.90
46758;DHT22;32509;47.750;-3.396;2023-08-06T12:42:05;19.70;99.90
46758;DHT22;32509;47.750;-3.396;2023-08-06T12:44:32;19.70;99.90
46758;DHT22;32509;47.750;-3.396;2023-08-06T12:46:58;19.80;99.90
46758;DHT22;32509;47.750;-3.396;2023-08-06T12:49:25;19.80;99.90
46758;DHT22;32509;47.750;-3.396;2023-08-06T12:51:52;19.80;99.90
46758;DHT22;32509;47.750;-3.396;2023-08-06T12:54:19;19.80;99.90
46758;DHT22;32509;47.750;-3.396;2023-08-06T12:56:46;19.80;99.90
46758;DHT22;32509;47.750;-3.396;2023-08-06T12:59:15;19.80;99.90
46758;DHT22;32509;47.750;-3.396;2023-08-06T13:01:42;19.80;99.90
46758;DHT22;32509;47.750;-3.396;2023-08-06T13:04:08;19.80;99.90
46758;DHT22;32509;47.750;-3.396;2023-08-06T13:06:34;19.80;99.90
46758;DHT22;32509;47.750;-3.396;2023-08-06T13:09:06;19.80;99.90
46758;DHT22;32509;47.750;-3.396;2023-08-06T13:11:34;19.80;99.90
46758;DHT22;32509;47.750;-3.396;2023-08-06T13:14:11;19.80;99.90
46758;DHT22;32509;47.750;-3.396;2023-08-06T13:16:38;19.80;99.90
46758;DHT22;32509;47.750;-3.396;2023-08-06T13:19:05;19.80;99.90
46758;DHT22;32509;47.750;-3.396;2023-08-06T13:24:06;19.80;99.90
46758;DHT22;32509;47.750;-3.396;2023-08-06T13:26:31;19.70;99.90
46758;DHT22;32509;47.750;-3.396;2023-08-06T13:28:58;19.80;99.90
46758;DHT22;32509;47.750;-3.396;2023-08-06T13:31:25;19.70;99.90
46758;DHT22;32509;47.750;-3.396;2023-08-06T13:33:51;19.70;99.90
46758;DHT22;32509;47.750;-3.396;2023-08-06T13:36:17;19.70;99.90
46758;DHT22;32509;47.750;-3.396;2023-08-06T13:38:43;19.70;99.90
46758;DHT22;32509;47.750;-3.396;2023-08-06T13:41:09;19.70;99.90
46758;DHT22;32509;47.750;-3.396;2023-08-06T13:43:34;19.70;99.90
46758;DHT22;32509;47.750;-3.396;2023-08-06T13:46:00;19.70;99.90
46758;DHT22;32509;47.750;-3.396;2023-08-06T13:48:26;19.70;99.90
46758;DHT22;32509;47.750;-3.396;2023-08-06T13:50:52;19.70;99.90
46758;DHT22;32509;47.750;-3.396;2023-08-06T13:53:18;19.70;99.90
46758;DHT22;32509;47.750;-3.396;2023-08-06T13:55:43;19.70;99.90
46758;DHT22;32509;47.750;-3.396;2023-08-06T13:58:09;19.70;99.90
46758;DHT22;32509;47.750;-3.396;2023-08-06T14:00:38;19.70;99.90
46758;DHT22;32509;47.750;-3.396;2023-08-06T14:03:04;19.70;99.90
46758;DHT22;32509;47.750;-3.396;2023-08-06T14:05:29;19.70;99.90
46758;DHT22;32509;47.750;-3.396;2023-08-06T14:07:55;19.70;99.90
46758;DHT22;32509;47.750;-3.396;2023-08-06T14:10:21;19.60;99.90
46758;DHT22;32509;47.750;-3.396;2023-08-06T14:12:46;19.60;99.90
46758;DHT22;32509;47.750;-3.396;2023-08-06T14:15:13;19.60;99.90
46758;DHT22;32509;47.750;-3.396;2023-08-06T14:17:39;19.60;99.90
46758;DHT22;32509;47.750;-3.396;2023-08-06T14:20:06;19.60;99.90
46758;DHT22;32509;47.750;-3.396;2023-08-06T14:22:33;19.60;99.90
46758;DHT22;32509;47.750;-3.396;2023-08-06T14:24:59;19.60;99.90
46758;DHT22;32509;47.750;-3.396;2023-08-06T14:27:25;19.60;99.90
46758;DHT22;32509;47.750;-3.396;2023-08-06T14:29:51;19.60;99.90
46758;DHT22;32509;47.750;-3.396;2023-08-06T14:32:17;19.50;99.90
46758;DHT22;32509;47.750;-3.396;2023-08-06T14:34:46;19.50;99.90
46758;DHT22;32509;47.750;-3.396;2023-08-06T14:37:12;19.50;99.90
46758;DHT22;32509;47.750;-3.396;2023-08-06T14:39:38;19.50;99.90
46758;DHT22;32509;47.750;-3.396;2023-08-06T14:42:04;19.60;99.90
46758;DHT22;32509;47.750;-3.396;2023-08-06T14:44:30;19.50;99.90
46758;DHT22;32509;47.750;-3.396;2023-08-06T14:46:56;19.60;99.90
46758;DHT22;32509;47.750;-3.396;2023-08-06T14:49:23;19.60;99.90
46758;DHT22;32509;47.750;-3.396;2023-08-06T14:51:49;19.50;99.90
46758;DHT22;32509;47.750;-3.396;2023-08-06T14:54:15;19.60;99.90
46758;DHT22;32509;47.750;-3.396;2023-08-06T14:56:41;19.50;99.90
46758;DHT22;32509;47.750;-3.396;2023-08-06T14:59:06;19.50;99.90
46758;DHT22;32509;47.750;-3.396;2023-08-06T15:01:32;19.50;99.90
46758;DHT22;32509;47.750;-3.396;2023-08-06T15:03:58;19.50;99.90
46758;DHT22;32509;47.750;-3.396;2023-08-06T15:06:24;19.40;99.90
46758;DHT22;32509;47.750;-3.396;2023-08-06T15:08:50;19.40;99.90
46758;DHT22;32509;47.750;-3.396;2023-08-06T15:11:18;19.40;99.90
46758;DHT22;32509;47.750;-3.396;2023-08-06T15:13:44;19.40;99.90
46758;DHT22;32509;47.750;-3.396;2023-08-06T15:16:09;19.30;99.90
46758;DHT22;32509;47.750;-3.396;2023-08-06T15:18:35;19.30;99.90
46758;DHT22;32509;47.750;-3.396;2023-08-06T15:21:01;19.40;99.90
46758;DHT22;32509;47.750;-3.396;2023-08-06T15:23:27;19.40;99.90